Time;durP1;ratioP1;P1;durP2;ratioP2;P2;SDS_P1;SDS_P2;PMS_P1;PMS_P2;Temp;Humidity;BMP_temperature;BMP_pressure;BME280_temperature;BME280_humidity;BME280_pressure;Samples;Min_cycle;Max_cycle;Signal;HPM_P1;HPM_P2
2022/07/23 00:00:42;;;;;;;29.23;23.30;;;17.20;99.90;;;;;;5039008;28;20463;-66
2022/07/23 00:03:09;;;;;;;27.50;24.70;;;17.20;99.90;;;;;;5040055;28;20973;-67
2022/07/23 00:05:37;;;;;;;26.30;24.20;;;17.20;99.90;;;;;;5035431;28;20959;-66
2022/07/23 00:08:04;;;;;;;27.37;24.80;;;17.20;99.90;;;;;;5039093;28;21152;-68
2022/07/23 00:10:31;;;;;;;27.40;24.97;;;17.10;99.90;;;;;;5040422;28;20542;-66
2022/07/23 00:12:58;;;;;;;26.87;24.80;;;17.10;99.90;;;;;;5032067;28;20494;-68
2022/07/23 00:15:25;;;;;;;26.37;24.13;;;17.10;99.90;;;;;;5042327;28;20472;-66
2022/07/23 00:17:53;;;;;;;27.20;24.90;;;17.10;99.90;;;;;;5038394;28;20474;-66
2022/07/23 00:20:20;;;;;;;26.70;24.40;;;17.10;99.90;;;;;;5032330;28;20684;-65
2022/07/23 00:22:48;;;;;;;27.30;24.50;;;17.00;99.90;;;;;;5037959;28;20870;-66
2022/07/23 00:25:16;;;;;;;28.37;26.03;;;17.00;99.90;;;;;;5034505;28;20464;-65
2022/07/23 00:27:43;;;;;;;26.27;23.70;;;17.00;99.90;;;;;;5040776;28;20942;-67
2022/07/23 00:30:11;;;;;;;27.33;24.40;;;17.00;99.90;;;;;;5037290;28;20468;-66
2022/07/23 00:32:47;;;;;;;27.10;24.77;;;17.00;99.90;;;;;;5037824;28;20456;-65
2022/07/23 00:35:15;;;;;;;27.00;24.90;;;16.90;99.90;;;;;;5039173;28;20498;-67
2022/07/23 00:37:42;;;;;;;27.93;25.30;;;17.00;99.90;;;;;;5033632;28;20487;-65
2022/07/23 00:40:12;;;;;;;27.90;25.27;;;16.90;99.90;;;;;;5038243;28;21084;-66
2022/07/23 00:42:39;;;;;;;28.90;26.30;;;16.90;99.90;;;;;;5041650;28;20495;-65
2022/07/23 00:45:07;;;;;;;27.30;24.77;;;16.90;99.90;;;;;;5040923;28;20499;-64
2022/07/23 00:47:34;;;;;;;29.57;26.00;;;16.90;99.90;;;;;;5037166;28;20838;-65
2022/07/23 00:50:02;;;;;;;28.97;26.33;;;16.80;99.90;;;;;;5038719;28;20464;-65
2022/07/23 00:52:32;;;;;;;29.53;26.53;;;16.70;99.90;;;;;;5035114;28;20488;-65
2022/07/23 00:54:59;;;;;;;27.17;25.03;;;16.70;99.90;;;;;;5041379;28;20496;-67
2022/07/23 00:57:26;;;;;;;27.47;24.77;;;16.70;99.90;;;;;;5037588;28;20463;-67
2022/07/23 00:59:53;;;;;;;28.80;25.90;;;16.70;99.90;;;;;;5040380;28;20459;-67
2022/07/23 01:02:20;;;;;;;28.23;26.03;;;16.60;99.90;;;;;;5036821;28;20873;-66
2022/07/23 01:04:47;;;;;;;28.60;26.20;;;16.60;99.90;;;;;;5035355;28;20523;-65
2022/07/23 01:07:14;;;;;;;29.83;26.77;;;16.60;99.90;;;;;;5035436;28;20480;-66
2022/07/23 01:09:43;;;;;;;27.50;25.30;;;16.50;99.90;;;;;;5035323;28;20559;-66
2022/07/23 01:12:10;;;;;;;27.20;25.07;;;16.50;99.90;;;;;;5036365;28;20459;-65
2022/07/23 01:14:37;;;;;;;28.30;25.40;;;16.40;99.90;;;;;;5038497;28;21077;-65
2022/07/23 01:17:05;;;;;;;31.03;28.10;;;16.40;99.90;;;;;;5041878;28;20517;-66
2022/07/23 01:19:32;;;;;;;25.93;23.97;;;16.40;99.90;;;;;;5042617;28;20754;-66
2022/07/23 01:22:02;;;;;;;26.87;24.43;;;16.40;99.90;;;;;;5036742;28;20498;-66
2022/07/23 01:24:31;;;;;;;25.30;23.43;;;16.40;99.90;;;;;;5038631;28;20467;-66
2022/07/23 01:26:57;;;;;;;27.83;25.43;;;16.30;99.90;;;;;;5038264;28;20471;-66
2022/07/23 01:29:24;;;;;;;27.67;25.37;;;16.20;99.90;;;;;;5031978;28;20456;-66
2022/07/23 01:31:51;;;;;;;27.20;24.60;;;16.20;99.90;;;;;;5040494;28;20468;-66
2022/07/23 01:34:18;;;;;;;28.40;26.00;;;16.10;99.90;;;;;;5038051;28;20479;-65
2022/07/23 01:36:46;;;;;;;27.80;25.40;;;16.00;99.90;;;;;;5031175;28;20483;-66
2022/07/23 01:39:13;;;;;;;30.27;27.53;;;15.90;99.90;;;;;;5034180;28;20472;-67
2022/07/23 01:41:42;;;;;;;32.63;29.17;;;15.80;99.90;;;;;;5034262;28;20464;-65
2022/07/23 01:44:09;;;;;;;30.40;27.70;;;15.80;99.90;;;;;;5036296;28;20677;-67
2022/07/23 01:46:36;;;;;;;30.40;28.00;;;15.80;99.90;;;;;;5035185;28;20471;-66
2022/07/23 01:49:03;;;;;;;35.27;28.47;;;15.70;99.90;;;;;;5041311;28;20456;-67
2022/07/23 01:51:30;;;;;;;31.03;27.47;;;15.70;99.90;;;;;;5043804;28;20463;-65
2022/07/23 01:53:58;;;;;;;31.07;28.10;;;15.60;99.90;;;;;;5042343;28;20486;-65
2022/07/23 01:56:25;;;;;;;30.70;27.90;;;15.60;99.90;;;;;;5040228;28;20463;-66
2022/07/23 01:58:53;;;;;;;28.73;26.10;;;15.60;99.90;;;;;;5044738;28;20839;-66
2022/07/23 02:01:20;;;;;;;29.47;26.97;;;15.50;99.90;;;;;;5036061;28;20845;-65
2022/07/23 02:03:47;;;;;;;31.50;28.43;;;15.40;99.90;;;;;;5046749;28;20475;-66
2022/07/23 02:06:15;;;;;;;34.07;28.80;;;15.30;99.90;;;;;;5042888;28;20452;-65
2022/07/23 02:08:42;;;;;;;105.33;30.43;;;15.30;99.90;;;;;;5041972;28;20460;-65
2022/07/23 02:11:09;;;;;;;44.53;28.63;;;15.30;99.90;;;;;;5038049;28;20555;-66
2022/07/23 02:13:38;;;;;;;39.40;27.80;;;15.30;99.90;;;;;;5039687;28;20487;-65
2022/07/23 02:16:07;;;;;;;33.40;29.33;;;15.20;99.90;;;;;;5041005;28;20476;-65
2022/07/23 02:18:34;;;;;;;31.57;28.67;;;15.20;99.90;;;;;;5040833;28;20499;-64
2022/07/23 02:21:00;;;;;;;174.70;31.93;;;15.20;99.90;;;;;;5040131;28;20461;-65
2022/07/23 02:23:28;;;;;;;29.63;26.33;;;15.10;99.90;;;;;;5044566;28;20517;-66
2022/07/23 02:25:56;;;;;;;30.20;27.47;;;15.10;99.90;;;;;;5041426;28;20463;-65
2022/07/23 02:28:22;;;;;;;29.57;26.90;;;15.10;99.90;;;;;;5041980;28;20464;-65
2022/07/23 02:30:49;;;;;;;52.63;29.43;;;15.00;99.90;;;;;;5042799;28;20460;-65
2022/07/23 02:33:18;;;;;;;50.90;26.60;;;15.00;99.90;;;;;;5043821;28;20491;-66
2022/07/23 02:35:45;;;;;;;35.33;25.40;;;15.10;99.90;;;;;;5038577;28;20472;-65
2022/07/23 02:38:13;;;;;;;28.70;25.43;;;15.00;99.90;;;;;;5041805;28;20519;-65
2022/07/23 02:40:41;;;;;;;27.67;25.47;;;14.90;99.90;;;;;;5045552;28;20517;-66
2022/07/23 02:43:08;;;;;;;28.60;26.10;;;14.90;99.90;;;;;;5041642;28;20476;-66
2022/07/23 02:45:35;;;;;;;27.53;25.20;;;14.90;99.90;;;;;;5044197;28;20464;-65
2022/07/23 02:48:02;;;;;;;43.47;27.13;;;14.90;99.90;;;;;;5045530;28;20920;-66
2022/07/23 02:50:31;;;;;;;26.97;24.83;;;14.80;99.90;;;;;;5038092;28;20959;-65
2022/07/23 02:52:58;;;;;;;28.20;25.60;;;14.80;99.90;;;;;;5036051;28;20469;-65
2022/07/23 02:55:25;;;;;;;29.03;26.20;;;14.80;99.90;;;;;;5041588;28;20523;-65
2022/07/23 02:57:53;;;;;;;49.47;27.20;;;14.80;99.90;;;;;;5042292;28;20460;-65
2022/07/23 03:00:20;;;;;;;209.70;30.43;;;14.80;99.90;;;;;;5039952;28;20796;-64
2022/07/23 03:02:47;;;;;;;534.73;36.53;;;14.80;99.90;;;;;;5044478;28;20661;-64
2022/07/23 03:05:14;;;;;;;342.60;31.33;;;14.80;99.90;;;;;;5042117;28;20817;-64
2022/07/23 03:07:43;;;;;;;126.03;27.73;;;14.80;99.90;;;;;;5040113;28;20472;-65
2022/07/23 03:10:10;;;;;;;99.90;27.33;;;14.70;99.90;;;;;;5038801;28;20825;-65
2022/07/23 03:12:37;;;;;;;116.23;26.77;;;14.70;99.90;;;;;;5042511;28;20464;-66
2022/07/23 03:15:06;;;;;;;100.43;26.13;;;14.60;99.90;;;;;;5037323;28;20485;-65
2022/07/23 03:17:33;;;;;;;162.40;28.33;;;14.50;99.90;;;;;;5042545;28;20463;-66
2022/07/23 03:20:00;;;;;;;272.17;29.07;;;14.50;99.90;;;;;;5038712;28;20865;-66
2022/07/23 03:22:28;;;;;;;149.40;27.60;;;14.50;99.90;;;;;;5035732;28;20460;-65
2022/07/23 03:24:57;;;;;;;215.33;29.13;;;14.50;99.90;;;;;;5038924;28;20544;-66
2022/07/23 03:27:25;;;;;;;163.37;28.50;;;14.40;99.90;;;;;;5043097;28;20464;-66
2022/07/23 03:29:54;;;;;;;185.73;28.53;;;14.40;99.90;;;;;;5037873;28;20971;-65
2022/07/23 03:32:21;;;;;;;41.13;23.10;;;14.40;99.90;;;;;;5039939;28;20460;-65
2022/07/23 03:34:48;;;;;;;90.43;26.30;;;14.20;99.90;;;;;;5041217;28;20488;-65
2022/07/23 03:37:16;;;;;;;43.27;25.10;;;14.20;99.90;;;;;;5034941;28;20464;-64
2022/07/23 03:39:43;;;;;;;25.37;23.10;;;14.10;99.90;;;;;;5044452;28;20468;-66
2022/07/23 03:42:11;;;;;;;25.17;23.37;;;14.10;99.90;;;;;;5041580;28;20802;-65
2022/07/23 03:44:38;;;;;;;40.97;25.70;;;14.20;99.90;;;;;;5039388;28;20808;-67
2022/07/23 03:47:06;;;;;;;42.67;24.67;;;14.20;99.90;;;;;;5040297;28;20551;-64
2022/07/23 03:49:33;;;;;;;220.77;28.13;;;14.20;99.90;;;;;;5038550;28;20832;-66
2022/07/23 03:52:02;;;;;;;201.40;28.40;;;14.10;99.90;;;;;;5040821;28;20469;-66
2022/07/23 03:54:28;;;;;;;161.40;25.97;;;14.10;99.90;;;;;;5038820;28;20533;-64
2022/07/23 03:56:56;;;;;;;108.27;24.73;;;14.00;99.90;;;;;;5037028;28;20467;-65
2022/07/23 03:59:25;;;;;;;115.50;26.10;;;14.00;99.90;;;;;;5042332;28;20464;-66
2022/07/23 04:01:52;;;;;;;167.33;26.93;;;14.00;99.90;;;;;;5030339;28;20769;-66
2022/07/23 04:04:19;;;;;;;113.80;24.43;;;14.00;99.90;;;;;;5020529;28;20452;-66
2022/07/23 04:06:46;;;;;;;224.77;27.60;;;14.10;99.90;;;;;;5017630;28;21156;-65
2022/07/23 04:09:13;;;;;;;225.17;28.47;;;14.10;99.90;;;;;;5017697;28;20471;-66
2022/07/23 04:11:40;;;;;;;27.60;22.83;;;14.10;99.90;;;;;;5018905;28;21172;-65
2022/07/23 04:14:08;;;;;;;34.00;22.73;;;14.00;99.90;;;;;;5018737;28;20479;-65
2022/07/23 04:16:36;;;;;;;47.40;21.23;;;14.00;99.90;;;;;;5018989;28;20527;-67
2022/07/23 04:19:04;;;;;;;48.43;20.97;;;13.90;99.90;;;;;;5020182;28;20567;-66
2022/07/23 04:21:31;;;;;;;48.93;21.87;;;13.90;99.90;;;;;;5018947;28;20821;-65
2022/07/23 04:23:58;;;;;;;61.37;21.70;;;13.80;99.90;;;;;;5019491;28;20468;-66
2022/07/23 04:26:25;;;;;;;70.03;22.70;;;13.80;99.90;;;;;;5018535;28;20498;-67
2022/07/23 04:28:52;;;;;;;166.03;27.10;;;13.90;99.90;;;;;;5019444;28;20461;-65
2022/07/23 04:31:19;;;;;;;32.07;21.63;;;13.90;99.90;;;;;;5019401;28;20510;-67
2022/07/23 04:33:48;;;;;;;23.20;21.40;;;14.00;99.90;;;;;;5018806;28;20882;-66
2022/07/23 04:36:14;;;;;;;23.30;21.40;;;14.00;99.90;;;;;;5019369;28;20467;-66
2022/07/23 04:38:41;;;;;;;33.37;22.27;;;14.00;99.90;;;;;;5019119;28;20486;-65
2022/07/23 04:41:08;;;;;;;31.33;23.40;;;14.10;99.90;;;;;;5020535;28;20484;-65
2022/07/23 04:43:35;;;;;;;24.50;22.80;;;14.10;99.90;;;;;;5020902;28;20502;-66
2022/07/23 04:46:02;;;;;;;44.03;24.07;;;14.10;99.90;;;;;;5018803;28;20522;-66
2022/07/23 04:48:28;;;;;;;50.30;27.77;;;14.10;99.90;;;;;;5020898;28;20456;-65
2022/07/23 04:50:56;;;;;;;35.30;25.47;;;14.10;99.90;;;;;;5019762;28;20467;-66
2022/07/23 04:53:24;;;;;;;31.50;25.40;;;14.20;99.90;;;;;;5017705;28;20469;-66
2022/07/23 04:55:50;;;;;;;28.00;25.37;;;14.20;99.90;;;;;;5018689;28;20487;-66
2022/07/23 04:58:17;;;;;;;29.43;26.13;;;14.20;99.90;;;;;;5019799;28;20464;-66
2022/07/23 05:00:44;;;;;;;26.53;24.10;;;14.30;99.90;;;;;;5018815;28;20483;-66
2022/07/23 05:03:11;;;;;;;28.33;25.33;;;14.30;99.90;;;;;;5019329;28;20495;-66
2022/07/23 05:05:38;;;;;;;28.07;25.07;;;14.30;99.90;;;;;;5019857;28;20465;-65
2022/07/23 05:08:07;;;;;;;37.83;25.77;;;14.40;99.90;;;;;;5018997;28;20467;-65
2022/07/23 05:10:34;;;;;;;30.40;27.20;;;14.50;99.90;;;;;;5019585;28;20543;-66
2022/07/23 05:13:01;;;;;;;26.80;24.30;;;14.50;99.90;;;;;;5019396;28;20472;-66
2022/07/23 05:15:28;;;;;;;30.00;25.50;;;14.60;99.90;;;;;;5019712;28;20515;-66
2022/07/23 05:17:54;;;;;;;47.67;28.00;;;14.70;99.90;;;;;;5018895;28;20457;-67
2022/07/23 05:20:21;;;;;;;29.43;25.27;;;14.70;99.90;;;;;;5019006;28;20468;-67
2022/07/23 05:22:48;;;;;;;30.00;26.43;;;14.80;99.90;;;;;;5021424;28;21110;-66
2022/07/23 05:25:16;;;;;;;34.97;25.57;;;15.00;99.90;;;;;;5023459;28;20475;-64
2022/07/23 05:27:43;;;;;;;30.53;27.30;;;15.10;99.90;;;;;;5023962;28;20484;-65
2022/07/23 05:30:11;;;;;;;31.33;25.97;;;15.20;99.90;;;;;;5023580;28;21231;-66
2022/07/23 05:32:38;;;;;;;32.90;26.50;;;15.40;99.90;;;;;;5023363;28;20468;-65
2022/07/23 05:35:06;;;;;;;31.63;28.33;;;15.50;99.90;;;;;;5023376;28;20515;-65
2022/07/23 05:37:33;;;;;;;30.23;26.77;;;15.60;99.90;;;;;;5022487;28;21021;-66
2022/07/23 05:40:02;;;;;;;32.73;27.47;;;15.70;99.90;;;;;;5023314;28;20471;-67
2022/07/23 05:42:30;;;;;;;32.47;27.07;;;15.70;99.90;;;;;;5023235;28;20456;-65
2022/07/23 05:44:57;;;;;;;30.00;26.80;;;15.80;99.90;;;;;;5023392;28;20785;-66
2022/07/23 05:47:24;;;;;;;30.13;27.03;;;15.90;99.90;;;;;;5020368;28;20545;-65
2022/07/23 05:49:51;;;;;;;28.50;25.47;;;16.00;99.90;;;;;;5022872;28;20474;-66
2022/07/23 05:52:18;;;;;;;35.20;27.57;;;16.20;99.90;;;;;;5022018;28;20460;-66
2022/07/23 05:54:45;;;;;;;29.67;26.67;;;16.10;99.90;;;;;;5021773;28;20494;-65
2022/07/23 05:57:12;;;;;;;29.97;27.07;;;16.10;99.90;;;;;;5023099;28;20468;-65
2022/07/23 05:59:40;;;;;;;31.17;28.20;;;16.20;99.90;;;;;;5023067;28;20467;-66
2022/07/23 06:02:08;;;;;;;34.77;28.33;;;16.20;99.90;;;;;;5018371;28;20471;-67
2022/07/23 06:04:35;;;;;;;32.37;28.90;;;16.20;99.90;;;;;;5020317;28;20474;-67
2022/07/23 06:07:02;;;;;;;32.53;28.30;;;16.30;99.90;;;;;;5019133;28;20476;-67
2022/07/23 06:09:29;;;;;;;32.57;29.33;;;16.30;99.90;;;;;;5020557;28;20819;-66
2022/07/23 06:11:56;;;;;;;33.77;30.20;;;16.40;99.90;;;;;;5020013;28;20715;-67
2022/07/23 06:14:23;;;;;;;31.57;28.57;;;16.50;99.90;;;;;;5019107;28;20487;-66
2022/07/23 06:16:51;;;;;;;34.77;31.03;;;16.50;99.90;;;;;;5019586;28;20498;-65
2022/07/23 06:19:18;;;;;;;31.90;28.50;;;16.60;99.90;;;;;;5019371;28;20460;-66
2022/07/23 06:21:45;;;;;;;35.83;30.73;;;16.60;99.90;;;;;;5017951;28;20452;-65
2022/07/23 06:24:12;;;;;;;34.17;30.43;;;16.70;99.90;;;;;;5018744;28;20471;-66
2022/07/23 06:26:39;;;;;;;36.53;32.33;;;16.70;99.90;;;;;;5029018;28;20464;-67
2022/07/23 06:29:07;;;;;;;34.37;30.67;;;16.70;99.90;;;;;;5036783;28;20468;-65
2022/07/23 06:31:34;;;;;;;32.47;29.00;;;16.80;99.90;;;;;;5040364;28;20471;-68
2022/07/23 06:34:02;;;;;;;36.40;32.27;;;16.90;99.90;;;;;;5021379;28;20967;-66
2022/07/23 06:36:29;;;;;;;43.30;31.90;;;17.00;99.90;;;;;;5017381;28;21084;-66
2022/07/23 06:38:56;;;;;;;47.67;33.30;;;17.10;99.90;;;;;;5016774;28;20481;-67
2022/07/23 06:41:23;;;;;;;42.83;32.80;;;17.10;99.90;;;;;;5015671;28;20471;-67
2022/07/23 06:43:50;;;;;;;44.57;33.20;;;17.20;99.90;;;;;;5018419;28;21343;-65
2022/07/23 06:46:17;;;;;;;47.83;32.63;;;17.20;99.90;;;;;;5017114;28;21080;-65
2022/07/23 06:48:44;;;;;;;44.67;32.50;;;17.30;99.90;;;;;;5017126;28;20472;-65
2022/07/23 06:51:12;;;;;;;50.97;31.07;;;17.40;99.90;;;;;;5016706;28;20867;-66
2022/07/23 06:53:39;;;;;;;46.00;32.30;;;17.40;99.90;;;;;;5016701;28;20468;-67
2022/07/23 06:56:06;;;;;;;40.67;31.90;;;17.50;99.90;;;;;;5017110;28;21175;-66
2022/07/23 06:58:33;;;;;;;42.43;31.57;;;17.60;99.90;;;;;;5020446;28;20472;-67
2022/07/23 07:01:00;;;;;;;51.90;30.87;;;17.60;99.90;;;;;;5018086;28;20463;-67
2022/07/23 07:03:27;;;;;;;60.27;33.70;;;17.70;99.90;;;;;;5018249;28;20475;-66
2022/07/23 07:05:54;;;;;;;62.47;35.10;;;17.70;99.90;;;;;;5017948;28;20894;-66
2022/07/23 07:08:22;;;;;;;57.73;33.87;;;17.80;99.90;;;;;;5016253;28;20478;-65
2022/07/23 07:10:49;;;;;;;56.43;35.20;;;17.90;99.90;;;;;;5017525;28;20457;-65
2022/07/23 07:13:16;;;;;;;48.30;32.30;;;17.90;99.90;;;;;;5017442;28;21083;-67
2022/07/23 07:15:43;;;;;;;52.00;34.50;;;18.00;99.90;;;;;;5017928;28;20599;-66
2022/07/23 07:18:10;;;;;;;52.57;33.30;;;18.10;99.90;;;;;;5019388;28;20464;-66
2022/07/23 07:20:37;;;;;;;56.83;35.00;;;18.20;99.90;;;;;;5019056;28;20468;-68
2022/07/23 07:23:04;;;;;;;49.50;32.63;;;18.30;99.90;;;;;;5019310;28;20471;-66
2022/07/23 07:25:33;;;;;;;51.70;32.80;;;18.40;99.90;;;;;;5018964;28;20802;-66
2022/07/23 07:27:59;;;;;;;50.40;33.70;;;18.50;99.90;;;;;;5018896;28;20452;-68
2022/07/23 07:30:26;;;;;;;48.07;32.43;;;18.60;99.90;;;;;;5019480;28;21007;-66
2022/07/23 07:32:54;;;;;;;56.43;31.93;;;18.80;99.90;;;;;;5024856;28;20463;-66
2022/07/23 07:35:21;;;;;;;46.93;31.03;;;19.00;99.90;;;;;;5035223;28;20546;-65
2022/07/23 07:37:49;;;;;;;45.80;31.20;;;19.10;99.90;;;;;;5024463;28;20524;-66
2022/07/23 07:40:15;;;;;;;55.07;31.10;;;19.30;99.90;;;;;;5035145;28;20827;-68
2022/07/23 07:42:48;;;;;;;41.93;29.83;;;19.30;99.90;;;;;;5036895;28;20460;-68
2022/07/23 07:45:15;;;;;;;45.47;32.47;;;19.50;99.90;;;;;;5017521;28;20465;-65
2022/07/23 07:47:42;;;;;;;41.53;31.77;;;19.60;99.90;;;;;;5018865;28;20957;-67
2022/07/23 07:50:09;;;;;;;41.13;30.33;;;19.70;99.90;;;;;;5018087;28;20460;-66
2022/07/23 07:52:36;;;;;;;37.50;27.70;;;19.90;99.90;;;;;;5018928;28;21196;-66
2022/07/23 07:55:05;;;;;;;39.43;28.87;;;19.90;99.90;;;;;;5018750;28;20863;-67
2022/07/23 07:57:32;;;;;;;30.30;26.83;;;20.00;99.90;;;;;;5018430;28;20456;-66
2022/07/23 08:00:01;;;;;;;33.03;25.53;;;20.20;99.90;;;;;;5019921;28;20465;-68
2022/07/23 08:02:28;;;;;;;29.20;26.00;;;20.30;99.90;;;;;;5017786;28;20479;-66
2022/07/23 08:04:57;;;;;;;30.47;27.43;;;20.50;99.90;;;;;;5017902;28;20449;-67
2022/07/23 08:07:24;;;;;;;27.13;23.60;;;20.60;99.90;;;;;;5018000;28;20633;-66
2022/07/23 08:09:50;;;;;;;31.20;24.97;;;20.70;99.90;;;;;;5017994;28;21322;-66
2022/07/23 08:12:17;;;;;;;25.67;23.30;;;20.70;99.90;;;;;;5018312;28;20476;-67
2022/07/23 08:14:44;;;;;;;25.30;22.60;;;20.80;99.90;;;;;;5017988;28;20480;-67
2022/07/23 08:17:13;;;;;;;26.60;24.37;;;20.90;99.90;;;;;;5018277;28;20511;-67
2022/07/23 08:19:39;;;;;;;26.20;23.67;;;20.90;99.90;;;;;;5018772;28;20456;-68
2022/07/23 08:22:06;;;;;;;26.10;23.70;;;21.00;99.90;;;;;;5018643;28;20468;-66
2022/07/23 08:24:33;;;;;;;25.67;23.03;;;21.20;99.90;;;;;;5016860;28;20476;-66
2022/07/23 08:27:00;;;;;;;31.83;22.73;;;21.40;99.90;;;;;;5017647;28;20483;-69
2022/07/23 08:29:27;;;;;;;26.00;23.80;;;22.00;99.90;;;;;;5018304;28;20796;-69
2022/07/23 08:31:54;;;;;;;25.40;22.93;;;22.60;99.90;;;;;;5018538;28;20563;-68
2022/07/23 08:34:23;;;;;;;24.63;22.20;;;22.80;99.90;;;;;;5018406;28;20964;-67
2022/07/23 08:36:49;;;;;;;26.03;23.70;;;23.10;99.90;;;;;;5016896;28;20701;-66
2022/07/23 08:39:16;;;;;;;25.83;23.17;;;23.60;99.90;;;;;;5018133;28;20492;-67
2022/07/23 08:41:44;;;;;;;26.77;24.17;;;23.70;99.90;;;;;;5020282;28;20445;-68
2022/07/23 08:44:11;;;;;;;25.87;23.77;;;23.80;99.90;;;;;;5016075;28;20474;-67
2022/07/23 08:46:40;;;;;;;26.43;24.17;;;24.30;99.90;;;;;;5014683;28;20459;-68
2022/07/23 08:49:07;;;;;;;26.03;23.83;;;24.70;99.90;;;;;;5013443;28;20464;-68
2022/07/23 08:51:35;;;;;;;24.83;22.73;;;24.80;99.90;;;;;;5013261;28;20472;-68
2022/07/23 08:54:02;;;;;;;24.10;22.23;;;25.10;99.90;;;;;;5012440;28;20464;-68
2022/07/23 08:56:29;;;;;;;23.50;21.80;;;25.40;99.90;;;;;;5016061;28;21132;-68
2022/07/23 08:58:56;;;;;;;23.03;21.33;;;25.40;99.90;;;;;;5019433;28;20908;-68
2022/07/23 09:01:23;;;;;;;23.60;21.53;;;25.30;99.90;;;;;;5028043;28;20962;-69
2022/07/23 09:03:50;;;;;;;24.23;22.23;;;25.50;99.90;;;;;;5042027;28;20464;-68
2022/07/23 09:06:17;;;;;;;22.93;21.10;;;25.90;99.90;;;;;;5045861;28;20458;-68
2022/07/23 09:08:46;;;;;;;22.20;20.50;;;26.30;99.90;;;;;;5019583;28;20479;-69
2022/07/23 09:11:14;;;;;;;22.20;20.33;;;26.50;99.90;;;;;;5018289;28;20860;-70
2022/07/23 09:13:43;;;;;;;23.13;21.33;;;26.00;99.90;;;;;;5017559;28;20461;-70
2022/07/23 09:16:12;;;;;;;21.93;20.20;;;26.00;99.90;;;;;;5017567;28;21157;-70
2022/07/23 09:18:44;;;;;;;22.27;20.20;;;25.90;99.90;;;;;;5017419;28;20480;-70
2022/07/23 09:21:20;;;;;;;22.90;20.93;;;25.80;99.90;;;;;;5018296;28;20982;-69
2022/07/23 09:23:52;;;;;;;23.00;20.83;;;26.40;99.90;;;;;;5017576;28;20767;-68
2022/07/23 09:26:30;;;;;;;23.70;21.50;;;26.90;99.90;;;;;;5018331;28;20463;-68
2022/07/23 09:29:04;;;;;;;22.83;20.93;;;26.90;99.90;;;;;;5016613;28;20508;-68
2022/07/23 09:31:48;;;;;;;22.47;20.70;;;26.90;99.90;;;;;;5016895;28;20841;-66
2022/07/23 09:34:18;;;;;;;22.10;19.90;;;27.60;99.90;;;;;;5017934;28;20812;-65
2022/07/23 09:36:46;;;;;;;21.20;19.67;;;28.00;99.90;;;;;;5026346;28;20523;-65
2022/07/23 09:39:15;;;;;;;23.03;21.07;;;28.10;99.90;;;;;;5040559;28;21037;-66
2022/07/23 09:41:45;;;;;;;23.23;21.30;;;28.10;99.90;;;;;;5040630;28;20463;-67
2022/07/23 09:44:15;;;;;;;22.50;20.60;;;28.60;99.90;;;;;;5034637;28;21126;-68
2022/07/23 09:46:43;;;;;;;22.07;20.37;;;28.60;98.30;;;;;;5015540;28;20462;-68
2022/07/23 09:49:18;;;;;;;21.77;20.00;;;28.80;97.70;;;;;;5018070;28;20618;-66
2022/07/23 09:51:47;;;;;;;21.27;19.73;;;29.00;97.70;;;;;;5017306;28;20471;-66
2022/07/23 09:54:25;;;;;;;21.37;20.07;;;29.20;95.90;;;;;;5016265;28;20523;-67
2022/07/23 09:56:53;;;;;;;21.80;20.43;;;29.30;94.80;;;;;;5015663;28;20476;-68
2022/07/23 09:59:24;;;;;;;20.97;19.47;;;28.60;94.40;;;;;;5015427;28;20471;-67
2022/07/23 10:01:53;;;;;;;21.13;19.73;;;28.50;93.70;;;;;;5015104;28;20468;-67
2022/07/23 10:04:20;;;;;;;21.27;19.57;;;28.50;94.30;;;;;;5015690;28;20465;-67
2022/07/23 10:07:02;;;;;;;20.40;18.50;;;28.40;95.50;;;;;;5015901;28;20867;-67
2022/07/23 10:09:32;;;;;;;21.03;19.10;;;28.50;95.00;;;;;;5015055;28;20526;-67
2022/07/23 10:12:14;;;;;;;20.17;18.97;;;28.40;93.50;;;;;;5039677;28;20459;-67
2022/07/23 10:14:42;;;;;;;19.17;18.03;;;28.20;93.30;;;;;;5036588;28;20491;-69
2022/07/23 10:17:09;;;;;;;19.73;18.13;;;28.90;94.40;;;;;;5015287;28;20503;-70
2022/07/23 10:19:36;;;;;;;20.17;18.43;;;29.80;92.50;;;;;;5014702;28;20469;-67
2022/07/23 10:22:08;;;;;;;18.70;17.20;;;29.90;91.10;;;;;;5015202;28;20460;-68
2022/07/23 10:24:48;;;;;;;18.67;17.20;;;30.00;88.10;;;;;;5014646;28;21503;-67
2022/07/23 10:27:33;;;;;;;19.33;18.07;;;30.70;85.90;;;;;;5015816;28;20854;-68
2022/07/23 10:30:06;;;;;;;20.13;18.83;;;30.90;85.20;;;;;;5016857;28;20694;-67
2022/07/23 10:32:41;;;;;;;18.53;17.33;;;30.70;85.30;;;;;;5016911;28;20840;-68
2022/07/23 10:35:13;;;;;;;18.17;17.10;;;29.30;82.50;;;;;;5015577;28;20537;-70
2022/07/23 10:37:44;;;;;;;18.20;17.00;;;29.70;86.30;;;;;;5016067;28;20491;-69
2022/07/23 10:40:18;;;;;;;18.70;17.30;;;30.30;83.10;;;;;;5014767;28;20468;-69
2022/07/23 10:42:46;;;;;;;17.77;16.60;;;30.90;82.90;;;;;;5016939;28;21156;-67
2022/07/23 10:45:29;;;;;;;19.07;17.87;;;31.70;79.00;;;;;;5016027;28;20476;-68
2022/07/23 10:48:11;;;;;;;18.97;17.77;;;32.60;75.30;;;;;;5016239;28;20460;-66
2022/07/23 10:50:39;;;;;;;18.33;17.23;;;32.50;73.10;;;;;;5016392;28;20472;-68
2022/07/23 10:53:24;;;;;;;18.00;17.00;;;32.30;71.80;;;;;;5016130;28;20498;-68
2022/07/23 10:58:49;;;;;;;20.33;17.60;;;32.60;69.70;;;;;;5016329;28;20463;-66
2022/07/23 11:01:36;;;;;;;17.40;16.50;;;31.80;69.30;;;;;;5011814;28;20464;-67
2022/07/23 11:04:07;;;;;;;18.70;17.40;;;31.90;67.20;;;;;;5015734;28;20480;-65
2022/07/23 11:07:07;;;;;;;18.40;17.30;;;32.30;64.50;;;;;;5014421;28;20483;-69
2022/07/23 11:09:40;;;;;;;18.03;17.03;;;32.70;62.80;;;;;;5012682;28;20875;-68
2022/07/23 11:12:34;;;;;;;18.67;17.30;;;32.30;62.80;;;;;;5016339;28;20475;-67
2022/07/23 11:15:05;;;;;;;18.87;17.77;;;31.80;63.00;;;;;;5013596;28;20866;-68
2022/07/23 11:17:33;;;;;;;18.63;17.53;;;31.30;64.00;;;;;;5014864;28;23099;-67
2022/07/23 11:20:21;;;;;;;18.70;17.70;;;30.90;65.10;;;;;;5015528;28;20869;-67
2022/07/23 11:22:50;;;;;;;18.60;17.50;;;30.40;65.80;;;;;;5016541;28;20465;-69
2022/07/23 11:25:33;;;;;;;18.60;17.40;;;31.40;66.90;;;;;;5016016;28;20472;-67
2022/07/23 11:28:16;;;;;;;17.30;16.40;;;31.30;62.00;;;;;;5015517;28;20456;-69
2022/07/23 11:30:44;;;;;;;16.80;16.00;;;31.80;59.00;;;;;;5016066;28;20482;-68
2022/07/23 11:33:22;;;;;;;17.37;16.47;;;31.70;57.70;;;;;;5016270;28;20875;-69
2022/07/23 11:36:02;;;;;;;17.43;16.43;;;31.90;58.80;;;;;;5015451;28;20470;-70
2022/07/23 11:38:32;;;;;;;17.40;16.50;;;31.50;56.90;;;;;;5014805;28;20487;-69
2022/07/23 11:40:59;;;;;;;16.23;15.23;;;31.80;56.10;;;;;;5013458;28;20614;-71
2022/07/23 11:43:27;;;;;;;17.53;16.50;;;32.00;56.50;;;;;;5015743;28;20946;-69
2022/07/23 11:45:59;;;;;;;17.20;16.20;;;31.40;53.50;;;;;;5015076;28;20522;-70
2022/07/23 11:48:27;;;;;;;17.13;16.13;;;32.20;53.90;;;;;;5015386;28;20881;-70
2022/07/23 11:50:56;;;;;;;17.93;16.60;;;33.20;54.10;;;;;;5014842;28;20541;-70
2022/07/23 11:53:24;;;;;;;17.60;16.60;;;33.80;52.30;;;;;;5015228;28;20463;-70
2022/07/23 11:55:51;;;;;;;17.60;16.53;;;33.30;54.60;;;;;;5014707;28;20482;-69
2022/07/23 11:58:18;;;;;;;18.30;17.30;;;33.40;53.70;;;;;;5014140;28;20646;-70
2022/07/23 12:00:50;;;;;;;18.00;17.00;;;33.70;53.10;;;;;;5012998;28;22577;-71
2022/07/23 12:03:17;;;;;;;18.63;17.10;;;34.30;54.50;;;;;;5040018;28;20513;-69
2022/07/23 12:05:44;;;;;;;17.53;16.63;;;34.60;51.80;;;;;;5039861;28;20460;-70
2022/07/23 12:08:11;;;;;;;17.63;16.57;;;34.90;50.40;;;;;;5023806;28;20834;-70
2022/07/23 12:10:41;;;;;;;17.37;16.47;;;33.80;51.60;;;;;;5012849;28;20479;-70
2022/07/23 12:13:10;;;;;;;17.33;16.43;;;33.40;52.10;;;;;;5013627;28;22491;-70
2022/07/23 12:15:39;;;;;;;17.10;16.10;;;34.00;51.60;;;;;;5012651;28;20498;-71
2022/07/23 12:18:09;;;;;;;18.23;17.33;;;34.20;50.40;;;;;;5013256;28;20496;-69
2022/07/23 12:20:38;;;;;;;17.70;16.60;;;34.80;49.80;;;;;;5014165;28;20468;-72
2022/07/23 12:23:06;;;;;;;18.17;17.20;;;34.60;50.30;;;;;;5012846;28;20859;-68
2022/07/23 12:25:48;;;;;;;17.13;16.20;;;34.90;48.50;;;;;;5013341;28;21092;-71
2022/07/23 12:28:17;;;;;;;17.10;16.20;;;35.60;49.10;;;;;;5013018;28;20457;-68
2022/07/23 12:30:46;;;;;;;17.50;16.27;;;34.00;47.10;;;;;;5015071;28;20551;-68
2022/07/23 12:33:21;;;;;;;16.60;15.70;;;34.20;50.30;;;;;;5042425;28;20595;-68
2022/07/23 12:35:50;;;;;;;16.50;15.60;;;33.20;48.30;;;;;;5018594;28;20478;-68